KTTSKDOV

Guest
Details From KTTS - Nasa Shuttle Landing Facility
To KDOV - Dover Afb
Flight Number -
Tags Generated
Created
Modified
Stats Distance 681 nm / 1,262 km
Max Altitude 0 ft / 0 m
Waypoints 4
Social Downloads 1
Likes 0
Share VATSIM

Download

Looking for another format? Having issues loading an existing format? Contact us
Advertisement - Login to hide

Notes

Generated

Route

KTTS JONGO R0390 KDOV

ID Type Via Altitude Latitude Longitude Leg Dist Tot Dist Heading (true) Name
O KTTS APT - 0 ft / 0 m 28.63275˚ -80.70606˚ - 0 nm - -
JONGO FIX - 0 ft / 0 m 35.58944˚ -77.39172˚ 450 nm 450 nm 21° / 23° -
R0390 FIX - 0 ft / 0 m 39.11719˚ -75.46460˚ 230 nm 681 nm 23° / 24° -
O KDOV APT - 0 ft / 0 m 39.11720˚ -75.46460˚ 0 nm 681 nm 322° / 322° -

Altitude Profile

Advertisement - Login to hide

Weather


0- 5 10 15 20 25 30 35+ Temperature / ° C

Clouds and Precipitation
Forecast for 2018-05-24 12:00 UTC. Updated 2 hours ago

Ground ~20,000 ft ~40,000 ft Winds

KTTS

Details ICAO KTTS
Name NASA Shuttle Landing Facility
Region United States
Timezone America/New_York (UTC-4.0)
Stats Elevation 10 ft / 3 m (AMSL)
Location 28.614891° -80.694371°
Runways 1
Magnetic Variation 6.854° W

METAR

KTTS 241056Z AUTO 00000KT 3SM BR BKN075 21/21 A3009 RMK AO2 VIS 1/2 RWY15/33 DZE01 SLP194 P0000 T02050205

Decode

TAF

Not found

Departure Runways

ID Width Length Bearing (true) Bearing (mag) Surface Threshold Offset Overrun Length
15 300 ft / 91 m 15,035 ft / 4,583 m 150.12° 156.97° Concrete 0 ft / 0 m 1,000 ft / 305 m
33 300 ft / 91 m 15,035 ft / 4,583 m 330.13° 336.98° Concrete 0 ft / 0 m 1,000 ft / 305 m

KDOV

Details ICAO KDOV (DOV)
Name Dover AFB
Region United States
Timezone America/New_York (UTC-4.0)
Stats Elevation 28 ft / 9 m (AMSL)
Location 39.129644° -75.465664°
Runways 2
Magnetic Variation 11.771° W

METAR

KDOV 241056Z 32005KT 10SM CLR 18/14 A3013 RMK AO2A SLP206 T01750140 $

Decode

TAF

TAF KDOV 240800Z 2408/2514 34006KT 9999 SKC QNH3007INS BECMG 2513/2514 21009KT 9999 SKC QNH3012INS TX27/2419Z TN14/2410Z

Decode

Destination Runways

ID Width Length Bearing (true) Bearing (mag) Surface Threshold Offset Overrun Length
01 200 ft / 61 m 9,619 ft / 2,932 m 3.21° 14.98° Asphalt 0 ft / 0 m 1,001 ft / 305 m
14 151 ft / 46 m 12,892 ft / 3,930 m 125.92° 137.69° Asphalt 4,249 ft / 1,295 m 151 ft / 46 m
19 200 ft / 61 m 9,619 ft / 2,932 m 183.21° 194.98° Asphalt 0 ft / 0 m 1,001 ft / 305 m
32 151 ft / 46 m 12,892 ft / 3,930 m 305.94° 317.71° Asphalt 0 ft / 0 m 1,001 ft / 305 m

Approach Navaids

Runway Type Ident Frequency Range Bearing (true) Bearing (mag) Slope Elevation
01 Localiser IDOV 109.95 MHz 18 nm / 33 km 3.21° 14.98° - 22 ft / 7 m (AMSL)
01 Glidescope IDOV 109.95 MHz 10 nm / 19 km 3.21° 14.98° 2.50° 28 ft / 9 m (AMSL)
19 Localiser ILIR 111.90 MHz 18 nm / 33 km 183.24° 195.01° - 20 ft / 6 m (AMSL)
19 Glidescope ILIR 111.90 MHz 10 nm / 19 km 183.21° 194.98° 2.70° 20 ft / 6 m (AMSL)